Time;durP1;ratioP1;P1;durP2;ratioP2;P2;SDS_P1;SDS_P2;PMS_P1;PMS_P2;Temp;Humidity;BMP_temperature;BMP_pressure;BME280_temperature;BME280_humidity;BME280_pressure;Samples;Min_cycle;Max_cycle;Signal;HPM_P1;HPM_P2
2021/08/03 00:00:10;;;;;;;2.67;0.87;;;;;;;14.34;81.66;100733.62;125177;1093;64358;-80
2021/08/03 00:02:43;;;;;;;6.10;1.27;;;;;;;14.28;83.38;100730.73;125145;1093;64253;-77
2021/08/03 00:05:17;;;;;;;2.40;1.00;;;;;;;14.23;83.30;100727.81;125363;1093;64304;-78
2021/08/03 00:07:47;;;;;;;4.00;1.33;;;;;;;14.19;84.21;100737.23;126231;1093;64248;-78
2021/08/03 00:10:20;;;;;;;4.60;1.23;;;;;;;14.17;84.46;100738.46;124960;1093;64269;-79
2021/08/03 00:12:52;;;;;;;4.63;1.20;;;;;;;14.14;84.74;100734.35;124780;1093;64285;-78
2021/08/03 00:15:23;;;;;;;9.40;2.47;;;;;;;14.12;85.95;100731.05;125105;1093;64274;-79
2021/08/03 00:17:55;;;;;;;1.53;1.00;;;;;;;14.09;85.27;100734.13;125509;1093;64193;-79
2021/08/03 00:20:25;;;;;;;2.67;1.50;;;;;;;14.07;85.87;100739.66;124934;1093;64432;-78
2021/08/03 00:22:56;;;;;;;3.63;1.03;;;;;;;14.03;85.84;100733.06;125195;1092;64256;-79
2021/08/03 00:25:25;;;;;;;2.00;1.03;;;;;;;14.02;85.84;100731.41;125066;1093;64111;-79
2021/08/03 00:27:53;;;;;;;3.47;1.37;;;;;;;14.02;86.57;100730.59;125182;1093;64307;-79
2021/08/03 00:30:23;;;;;;;3.87;1.27;;;;;;;14.01;85.95;100732.44;125041;1093;64380;-79
2021/08/03 00:32:52;;;;;;;2.00;1.10;;;;;;;14.02;86.18;100736.73;125138;1093;64406;-82
2021/08/03 00:35:21;;;;;;;6.50;1.30;;;;;;;14.03;86.21;100733.06;125108;1093;64192;-79
2021/08/03 00:37:49;;;;;;;3.87;1.33;;;;;;;14.05;86.26;100725.69;124977;1093;64295;-80
2021/08/03 00:40:17;;;;;;;2.97;1.20;;;;;;;14.05;85.96;100728.36;124897;1093;64310;-79
2021/08/03 00:42:44;;;;;;;2.53;1.40;;;;;;;14.06;86.32;100729.17;125323;1093;64342;-80
2021/08/03 00:45:12;;;;;;;2.67;1.20;;;;;;;14.05;87.64;100736.36;124966;1093;64326;-79
2021/08/03 00:47:39;;;;;;;2.00;0.90;;;;;;;14.04;87.68;100728.55;125018;1092;64299;-78
2021/08/03 00:50:06;;;;;;;2.73;1.00;;;;;;;14.02;87.55;100726.06;125044;1093;65426;-77
2021/08/03 00:52:35;;;;;;;2.60;1.50;;;;;;;13.99;88.04;100725.66;124987;1093;64266;-80
2021/08/03 00:55:04;;;;;;;3.53;1.30;;;;;;;13.96;88.27;100726.88;124933;1093;64285;-78
2021/08/03 00:57:32;;;;;;;2.87;1.33;;;;;;;13.95;88.52;100727.06;124949;1093;64605;-78
2021/08/03 00:59:59;;;;;;;3.80;1.20;;;;;;;13.94;88.49;100728.07;124806;1093;64304;-77
2021/08/03 01:02:27;;;;;;;4.93;1.20;;;;;;;13.94;88.72;100725.41;124995;1093;64271;-81
2021/08/03 01:04:54;;;;;;;1.60;1.07;;;;;;;13.94;89.14;100726.25;124817;1093;64263;-77
2021/08/03 01:07:34;;;;;;;3.17;1.80;;;;;;;13.93;89.19;100731.77;124791;1092;64272;-79
2021/08/03 01:10:11;;;;;;;2.37;1.40;;;;;;;13.92;89.01;100725.63;125153;1093;64227;-81
2021/08/03 01:12:55;;;;;;;4.23;1.20;;;;;;;13.93;89.24;100721.11;124946;1092;64195;-79
2021/08/03 01:15:43;;;;;;;3.00;1.20;;;;;;;13.93;89.19;100724.59;125031;1093;64163;-79
2021/08/03 01:18:30;;;;;;;2.13;1.00;;;;;;;13.94;89.90;100728.92;124920;1092;64299;-79
2021/08/03 01:21:03;;;;;;;7.00;1.33;;;;;;;13.91;89.76;100728.48;124853;1092;64310;-82
2021/08/03 01:23:49;;;;;;;2.20;0.80;;;;;;;13.90;91.26;100734.81;124797;1093;64406;-80
2021/08/03 01:26:49;;;;;;;3.20;1.27;;;;;;;13.89;90.14;100735.84;124961;1092;64288;-79
2021/08/03 01:29:18;;;;;;;3.00;1.00;;;;;;;13.86;90.97;100737.88;124814;1093;64272;-78
2021/08/03 01:31:52;;;;;;;3.77;1.60;;;;;;;13.86;91.37;100745.06;124939;1092;64310;-78
2021/08/03 01:34:23;;;;;;;4.80;1.30;;;;;;;13.84;90.96;100734.59;125061;1093;65027;-80
2021/08/03 01:36:53;;;;;;;3.40;1.03;;;;;;;13.84;91.21;100733.77;125120;1092;64409;-77
2021/08/03 01:39:28;;;;;;;2.87;2.30;;;;;;;13.84;91.40;100734.59;124924;1093;64272;-81
2021/08/03 01:41:55;;;;;;;;;;;;;;;13.85;91.54;100727.41;125066;1092;64277;-84
2021/08/03 01:44:23;;;;;;;4.10;1.30;;;;;;;13.84;91.40;100731.11;125062;1092;64287;-81
2021/08/03 01:46:51;;;;;;;4.13;1.60;;;;;;;13.85;91.62;100744.22;125096;1093;64199;-80
2021/08/03 01:49:23;;;;;;;4.70;1.50;;;;;;;13.85;91.72;100736.22;125069;1092;64329;-80
2021/08/03 01:51:52;;;;;;;5.10;1.40;;;;;;;13.89;91.94;100738.52;125084;1093;64914;-80
2021/08/03 01:54:19;;;;;;;2.10;1.30;;;;;;;13.90;91.65;100732.15;125736;1093;64272;-78
2021/08/03 01:56:48;;;;;;;1.80;1.07;;;;;;;13.94;91.24;100738.73;125160;1093;64264;-80
2021/08/03 01:59:17;;;;;;;3.37;1.20;;;;;;;13.96;91.42;100742.03;125159;1093;64196;-79
2021/08/03 02:01:45;;;;;;;2.03;1.30;;;;;;;13.99;91.24;100747.81;125011;1092;64294;-81
2021/08/03 02:04:17;;;;;;;1.80;1.30;;;;;;;14.00;91.48;100744.11;125106;1092;64313;-79
2021/08/03 02:06:46;;;;;;;3.10;1.40;;;;;;;14.04;91.40;100747.22;125158;1093;64269;-79
2021/08/03 02:09:15;;;;;;;1.70;1.10;;;;;;;14.09;91.53;100750.14;125085;1092;64280;-81
2021/08/03 02:11:45;;;;;;;1.60;1.00;;;;;;;14.12;91.19;100740.91;125067;1093;64367;-78
2021/08/03 02:14:13;;;;;;;4.70;1.40;;;;;;;14.15;91.18;100745.84;125375;1092;64410;-79
2021/08/03 02:16:41;;;;;;;3.95;1.05;;;;;;;14.14;91.14;100745.02;124841;1093;64297;-80
2021/08/03 02:19:10;;;;;;;2.43;1.07;;;;;;;14.15;90.92;100735.17;124987;1093;64311;-80
2021/08/03 02:21:42;;;;;;;2.23;1.10;;;;;;;14.17;91.21;100738.46;125011;1092;65465;-79
2021/08/03 02:24:09;;;;;;;3.10;1.10;;;;;;;14.18;91.11;100746.28;124914;1093;64291;-77
2021/08/03 02:26:36;;;;;;;1.87;0.97;;;;;;;14.17;91.17;100744.61;124988;1093;64165;-78
2021/08/03 02:29:05;;;;;;;4.23;1.20;;;;;;;14.16;91.25;100750.98;124751;1093;64260;-79
2021/08/03 02:31:53;;;;;;;2.90;1.20;;;;;;;14.15;91.27;100745.84;124996;1093;64337;-78
2021/08/03 02:34:28;;;;;;;3.70;1.27;;;;;;;14.09;91.71;100747.47;125132;1093;64368;-80
2021/08/03 02:37:00;;;;;;;2.10;1.20;;;;;;;14.06;91.29;100750.52;125176;1093;64176;-79
2021/08/03 02:39:30;;;;;;;5.03;1.23;;;;;;;14.05;91.68;100741.70;124897;1092;64409;-78
2021/08/03 02:41:59;;;;;;;1.80;1.00;;;;;;;14.04;91.43;100740.03;126864;1093;64272;-79
2021/08/03 02:44:28;;;;;;;3.53;1.10;;;;;;;14.05;91.31;100735.55;125145;1093;64345;-80
2021/08/03 02:46:55;;;;;;;3.87;1.40;;;;;;;14.06;91.47;100734.51;124943;1092;64320;-81
2021/08/03 02:49:46;;;;;;;2.25;1.25;;;;;;;14.05;91.16;100741.70;125000;1092;64195;-80
2021/08/03 02:52:16;;;;;;;1.60;0.90;;;;;;;14.06;91.52;100747.84;125092;1093;64345;-79
2021/08/03 02:54:49;;;;;;;2.70;1.10;;;;;;;14.03;91.68;100742.92;125079;1093;64270;-78
2021/08/03 02:57:19;;;;;;;3.00;1.27;;;;;;;14.02;91.86;100731.41;125067;1093;64215;-80
2021/08/03 02:59:50;;;;;;;1.90;1.15;;;;;;;14.00;91.50;100738.77;125111;1093;64214;-80
2021/08/03 03:02:19;;;;;;;2.17;1.10;;;;;;;14.00;91.31;100737.95;125030;1093;64292;-79
2021/08/03 03:05:00;;;;;;;3.40;1.07;;;;;;;14.00;91.28;100732.63;125272;1093;64343;-78
2021/08/03 03:07:33;;;;;;;3.30;1.30;;;;;;;14.01;91.13;100739.63;125869;1092;64243;-81
2021/08/03 03:10:03;;;;;;;4.37;1.40;;;;;;;14.01;91.13;100731.62;125378;1093;64278;-80
2021/08/03 03:12:34;;;;;;;3.33;1.00;;;;;;;13.99;90.87;100730.99;125547;1093;64265;-81
2021/08/03 03:15:07;;;;;;;3.00;1.03;;;;;;;14.00;90.96;100730.77;125241;1091;64218;-80
2021/08/03 03:17:35;;;;;;;3.70;1.07;;;;;;;14.02;90.48;100730.59;125331;1093;64285;-81
2021/08/03 03:20:05;;;;;;;3.75;1.25;;;;;;;14.03;90.39;100742.92;125166;1092;64253;-78
2021/08/03 03:22:35;;;;;;;2.20;0.70;;;;;;;14.02;90.39;100741.25;124980;1092;64249;-78
2021/08/03 03:25:04;;;;;;;4.03;1.23;;;;;;;13.99;91.10;100747.00;125027;1093;64272;-76
2021/08/03 03:27:32;;;;;;;3.10;1.35;;;;;;;13.94;90.72;100738.73;125166;1093;64280;-80
2021/08/03 03:30:00;;;;;;;3.53;1.10;;;;;;;13.89;91.44;100743.84;125018;1093;64288;-79
2021/08/03 03:32:31;;;;;;;2.13;1.10;;;;;;;13.87;91.85;100752.85;125053;1093;64330;-79
2021/08/03 03:34:59;;;;;;;4.00;1.40;;;;;;;13.84;92.27;100747.92;124950;1093;64281;-79
2021/08/03 03:37:29;;;;;;;2.63;1.30;;;;;;;13.81;92.14;100745.66;125043;1093;64192;-78
2021/08/03 03:39:57;;;;;;;1.50;1.03;;;;;;;13.79;92.29;100742.36;124858;1092;64298;-79
2021/08/03 03:42:33;;;;;;;1.73;1.13;;;;;;;13.77;92.32;100741.73;125091;1093;64420;-79
2021/08/03 03:45:01;;;;;;;3.60;1.40;;;;;;;13.76;92.77;100750.73;124911;1093;64256;-78
2021/08/03 03:47:35;;;;;;;1.73;0.90;;;;;;;13.76;92.53;100749.92;124988;1092;64268;-79
2021/08/03 03:50:11;;;;;;;2.80;1.20;;;;;;;13.76;92.36;100755.25;125083;1093;64261;-80
2021/08/03 03:52:46;;;;;;;2.10;0.97;;;;;;;13.73;92.84;100753.80;124957;1093;64285;-79
2021/08/03 03:55:20;;;;;;;2.60;1.30;;;;;;;13.71;92.58;100750.51;124910;1093;65340;-79
2021/08/03 03:57:48;;;;;;;2.08;1.10;;;;;;;13.71;92.53;100754.98;124997;1093;64233;-79
2021/08/03 04:00:18;;;;;;;4.70;1.33;;;;;;;13.70;93.04;100758.69;124943;1093;64294;-79
2021/08/03 04:02:49;;;;;;;8.00;1.20;;;;;;;13.69;92.36;100752.54;124985;1093;64367;-78
2021/08/03 04:05:18;;;;;;;2.60;1.30;;;;;;;13.66;92.71;100758.24;124923;1093;64462;-80
2021/08/03 04:07:51;;;;;;;2.57;1.33;;;;;;;13.65;92.92;100751.28;124982;1093;64969;-80
2021/08/03 04:10:31;;;;;;;3.10;1.35;;;;;;;13.66;93.11;100750.25;124999;1093;64262;-78
2021/08/03 04:12:59;;;;;;;2.17;1.20;;;;;;;13.70;92.99;100754.17;125005;1093;64362;-79
2021/08/03 04:15:28;;;;;;;2.73;0.97;;;;;;;13.71;92.85;100749.66;125009;1093;64299;-79
2021/08/03 04:17:55;;;;;;;2.20;1.10;;;;;;;13.77;93.12;100752.40;125207;1092;64221;-80
2021/08/03 04:20:22;;;;;;;4.93;1.17;;;;;;;13.81;92.95;100748.33;124954;1093;64338;-79
2021/08/03 04:22:49;;;;;;;3.73;1.30;;;;;;;13.85;92.60;100746.89;125025;1093;64342;-78
2021/08/03 04:25:17;;;;;;;2.97;1.53;;;;;;;13.89;92.59;100746.52;125104;1093;64291;-77
2021/08/03 04:27:44;;;;;;;4.67;1.43;;;;;;;13.92;92.39;100746.11;124852;1092;64294;-79
2021/08/03 04:30:14;;;;;;;4.47;1.30;;;;;;;13.94;92.11;100750.25;124922;1092;64198;-79
2021/08/03 04:32:42;;;;;;;1.97;1.20;;;;;;;13.94;91.74;100744.08;125045;1093;64288;-78
2021/08/03 04:35:11;;;;;;;3.90;1.30;;;;;;;13.90;91.81;100749.00;125278;1092;64270;-79
2021/08/03 04:37:46;;;;;;;1.83;1.17;;;;;;;13.87;91.65;100744.85;124875;1093;64384;-79
2021/08/03 04:40:15;;;;;;;5.07;1.37;;;;;;;13.84;91.62;100745.25;125077;1093;64217;-79
2021/08/03 04:42:43;;;;;;;3.75;1.20;;;;;;;13.80;91.63;100752.00;124996;1093;64390;-79
2021/08/03 04:45:11;;;;;;;2.23;1.23;;;;;;;13.82;92.05;100752.63;124981;1093;64416;-78
2021/08/03 04:47:43;;;;;;;4.80;1.23;;;;;;;13.85;92.06;100746.07;125067;1093;64298;-80
2021/08/03 04:50:19;;;;;;;2.00;1.00;;;;;;;13.87;92.51;100750.19;125002;1092;64426;-79
2021/08/03 04:52:46;;;;;;;3.10;1.50;;;;;;;13.92;92.35;100751.44;125152;1093;64358;-79
2021/08/03 04:55:13;;;;;;;2.33;1.60;;;;;;;13.92;92.13;100754.11;125057;1093;64195;-80
2021/08/03 04:57:41;;;;;;;1.90;1.27;;;;;;;13.94;91.96;100750.25;125151;1092;64355;-78
2021/08/03 05:00:11;;;;;;;4.80;1.63;;;;;;;13.94;91.88;100749.41;125127;1093;64276;-79
2021/08/03 05:02:39;;;;;;;2.20;1.30;;;;;;;13.94;91.73;100749.41;124875;1092;64686;-79
2021/08/03 05:05:08;;;;;;;3.77;1.53;;;;;;;13.93;91.58;100750.44;125239;1093;64272;-79
2021/08/03 05:07:36;;;;;;;3.43;1.77;;;;;;;13.95;91.97;100756.41;125226;1093;64280;-81
2021/08/03 05:10:05;;;;;;;1.60;1.10;;;;;;;13.96;91.76;100758.04;125226;1093;64426;-77
2021/08/03 05:12:33;;;;;;;2.00;1.30;;;;;;;13.96;91.68;100760.70;125467;1093;65217;-81
2021/08/03 05:15:01;;;;;;;2.53;1.43;;;;;;;13.93;91.51;100747.77;125228;1093;64313;-78
2021/08/03 05:17:29;;;;;;;4.17;1.23;;;;;;;13.97;92.16;100754.37;124880;1092;64259;-78
2021/08/03 05:19:57;;;;;;;2.87;1.60;;;;;;;13.99;91.73;100752.33;125113;1093;64272;-78
2021/08/03 05:22:26;;;;;;;4.67;1.50;;;;;;;14.03;92.14;100748.25;125029;1093;64352;-78
2021/08/03 05:24:54;;;;;;;7.80;1.83;;;;;;;14.11;92.17;100753.44;124994;1093;64253;-80
2021/08/03 05:27:21;;;;;;;3.27;1.60;;;;;;;14.15;91.39;100751.99;125054;1093;64198;-78
2021/08/03 05:29:48;;;;;;;4.20;1.60;;;;;;;14.17;91.56;100752.62;125071;1093;64275;-79
2021/08/03 05:32:15;;;;;;;3.10;1.87;;;;;;;14.25;91.67;100757.80;124954;1092;64285;-80
2021/08/03 05:34:42;;;;;;;3.87;1.67;;;;;;;14.32;91.11;100757.83;125091;1093;64192;-80
2021/08/03 05:37:09;;;;;;;5.03;1.67;;;;;;;14.38;91.39;100765.04;125256;1093;64301;-80
2021/08/03 05:39:37;;;;;;;5.63;1.43;;;;;;;14.48;91.43;100762.84;125156;1093;64187;-80
2021/08/03 05:42:04;;;;;;;3.00;1.90;;;;;;;14.60;91.01;100770.30;125036;1092;64201;-81
2021/08/03 05:44:31;;;;;;;2.17;1.47;;;;;;;14.70;90.80;100769.93;125253;1093;64294;-79
2021/08/03 05:47:00;;;;;;;4.70;2.37;;;;;;;14.81;90.32;100766.67;125009;1093;64662;-79
2021/08/03 05:49:27;;;;;;;2.73;1.63;;;;;;;14.92;90.04;100765.27;125206;1093;64307;-79
2021/08/03 05:51:57;;;;;;;5.17;1.93;;;;;;;14.99;89.34;100761.59;124826;1093;64667;-80
2021/08/03 05:54:24;;;;;;;5.33;1.90;;;;;;;15.12;88.82;100760.80;125119;1093;64296;-80
2021/08/03 05:56:51;;;;;;;5.50;2.10;;;;;;;15.27;88.73;100761.42;125029;1093;64241;-79
2021/08/03 05:59:18;;;;;;;3.27;1.60;;;;;;;15.40;86.90;100765.14;125000;1092;64327;-78
2021/08/03 06:01:45;;;;;;;5.00;2.17;;;;;;;15.49;87.01;100766.57;124981;1092;64268;-79
2021/08/03 06:04:13;;;;;;;2.93;1.43;;;;;;;15.60;86.01;100760.63;124979;1093;64246;-79
2021/08/03 06:06:42;;;;;;;5.50;2.17;;;;;;;15.62;84.64;100757.72;124826;1093;64306;-79
2021/08/03 06:09:11;;;;;;;3.20;1.97;;;;;;;15.63;85.09;100754.03;125074;1093;64272;-79
2021/08/03 06:11:48;;;;;;;5.43;2.20;;;;;;;15.71;84.82;100759.17;124986;1093;64448;-79
2021/08/03 06:14:36;;;;;;;3.47;1.57;;;;;;;15.82;85.14;100761.24;125071;1093;64272;-79
2021/08/03 06:17:07;;;;;;;2.53;1.50;;;;;;;15.93;84.36;100753.62;125045;1093;64269;-82
2021/08/03 06:19:42;;;;;;;3.90;2.07;;;;;;;16.08;83.82;100751.52;125211;1093;64277;-79
2021/08/03 06:22:10;;;;;;;5.27;1.67;;;;;;;16.18;82.96;100757.26;125312;1092;64237;-80
2021/08/03 06:24:39;;;;;;;2.60;0.87;;;;;;;16.25;80.11;100758.05;124892;1092;64408;-79
2021/08/03 06:27:09;;;;;;;3.50;2.00;;;;;;;16.31;80.53;100759.89;125630;1093;64196;-79
2021/08/03 06:29:38;;;;;;;5.70;1.50;;;;;;;16.36;80.17;100759.25;126571;1091;64198;-77
2021/08/03 06:32:07;;;;;;;4.87;1.33;;;;;;;16.41;79.46;100758.64;124967;1092;64331;-74
2021/08/03 06:34:37;;;;;;;4.30;1.03;;;;;;;16.46;78.49;100762.30;124833;1093;64341;-76
2021/08/03 06:37:04;;;;;;;7.27;1.17;;;;;;;16.49;78.58;100758.38;124827;1093;64287;-77
2021/08/03 06:39:32;;;;;;;6.90;1.40;;;;;;;16.51;79.30;100762.51;124734;1093;64345;-77
2021/08/03 06:42:05;;;;;;;4.83;1.57;;;;;;;16.56;79.29;100759.19;124944;1093;64277;-76
2021/08/03 06:44:45;;;;;;;7.07;1.60;;;;;;;16.58;78.75;100759.80;125013;1093;65170;-77
2021/08/03 06:47:15;;;;;;;4.75;1.90;;;;;;;16.65;78.78;100760.58;125235;1093;64285;-78
2021/08/03 06:49:47;;;;;;;5.13;1.90;;;;;;;16.78;78.87;100761.55;124827;1093;64910;-78
2021/08/03 06:52:16;;;;;;;3.60;1.60;;;;;;;16.90;78.52;100754.52;125161;1093;64317;-81
2021/08/03 06:54:50;;;;;;;6.33;2.80;;;;;;;17.02;77.98;100757.31;124922;1093;64217;-79
2021/08/03 06:57:22;;;;;;;6.40;2.00;;;;;;;17.18;76.80;100754.12;125054;1092;64291;-78
2021/08/03 06:59:53;;;;;;;4.17;1.00;;;;;;;17.32;73.44;100757.54;124969;1093;64955;-77
2021/08/03 07:02:29;;;;;;;7.20;1.70;;;;;;;17.48;72.11;100751.61;124915;1093;64272;-78
2021/08/03 07:04:58;;;;;;;3.60;1.53;;;;;;;17.60;69.88;100754.41;125068;1093;64284;-78
2021/08/03 07:07:26;;;;;;;3.63;2.30;;;;;;;17.72;71.04;100751.81;124960;1093;64296;-78
2021/08/03 07:09:57;;;;;;;4.40;2.87;;;;;;;17.81;70.57;100753.19;124795;1093;64275;-75
2021/08/03 07:12:25;;;;;;;2.97;1.63;;;;;;;17.84;70.92;100751.95;124829;1093;64268;-79
2021/08/03 07:14:53;;;;;;;3.07;1.90;;;;;;;17.90;69.80;100749.20;124934;1092;64345;-79
2021/08/03 07:17:21;;;;;;;4.00;2.20;;;;;;;17.88;70.49;100750.47;124981;1093;64288;-79
2021/08/03 07:19:50;;;;;;;4.67;2.03;;;;;;;17.88;70.54;100748.59;124861;1093;64324;-78
2021/08/03 07:22:17;;;;;;;5.40;2.10;;;;;;;17.96;70.64;100754.70;127086;1092;64166;-79
2021/08/03 07:24:47;;;;;;;9.17;1.93;;;;;;;18.00;69.81;100747.86;124825;1093;64248;-78
2021/08/03 07:27:15;;;;;;;3.13;1.33;;;;;;;18.06;69.27;100755.86;125020;1093;64407;-79
2021/08/03 07:29:42;;;;;;;4.40;1.77;;;;;;;18.09;68.57;100751.91;124801;1093;64291;-81
2021/08/03 07:32:12;;;;;;;4.30;2.20;;;;;;;18.17;68.60;100754.30;124758;1093;64288;-78
2021/08/03 07:34:41;;;;;;;3.20;1.70;;;;;;;18.22;66.96;100746.38;124741;1092;64266;-75
2021/08/03 07:37:10;;;;;;;3.10;1.30;;;;;;;18.25;66.35;100751.28;124948;1093;64291;-76
2021/08/03 07:39:39;;;;;;;5.40;1.77;;;;;;;18.32;66.90;100754.73;125023;1093;64368;-77
2021/08/03 07:42:07;;;;;;;4.15;1.55;;;;;;;18.47;67.54;100748.16;124895;1093;64291;-75
2021/08/03 07:44:36;;;;;;;3.43;1.40;;;;;;;18.56;66.99;100752.17;124823;1093;64343;-78
2021/08/03 07:47:04;;;;;;;4.20;1.67;;;;;;;18.69;66.64;100751.17;125005;1093;64279;-83
2021/08/03 07:49:31;;;;;;;3.80;1.50;;;;;;;18.76;66.06;100749.20;124815;1093;64358;-79
2021/08/03 07:51:58;;;;;;;3.53;1.30;;;;;;;18.88;66.62;100738.55;124954;1092;64195;-79
2021/08/03 07:54:25;;;;;;;3.20;1.60;;;;;;;19.09;65.88;100740.70;124931;1093;64272;-80
2021/08/03 07:56:52;;;;;;;2.53;1.33;;;;;;;19.27;64.51;100733.59;124935;1093;64266;-78
2021/08/03 07:59:19;;;;;;;2.67;1.47;;;;;;;19.55;65.29;100738.30;124965;1093;64272;-77
2021/08/03 08:01:46;;;;;;;4.27;1.87;;;;;;;19.85;62.62;100740.92;124982;1093;64297;-77
2021/08/03 08:04:14;;;;;;;4.27;1.50;;;;;;;20.03;60.96;100734.56;124902;1093;64313;-77
2021/08/03 08:06:41;;;;;;;3.10;1.67;;;;;;;20.18;60.55;100736.77;124945;1093;64294;-78
2021/08/03 08:09:17;;;;;;;2.67;1.50;;;;;;;20.25;60.04;100731.23;124928;1092;64291;-82
2021/08/03 08:11:44;;;;;;;4.50;1.80;;;;;;;20.22;60.51;100731.73;125009;1093;64308;-78
2021/08/03 08:14:12;;;;;;;5.45;1.90;;;;;;;20.23;59.33;100731.50;125066;1093;64370;-80
2021/08/03 08:16:39;;;;;;;2.60;1.43;;;;;;;20.19;58.78;100730.34;125365;1093;64409;-82
2021/08/03 08:19:06;;;;;;;4.35;1.85;;;;;;;20.13;58.83;100736.67;125325;1092;64286;-77
2021/08/03 08:21:33;;;;;;;5.63;2.20;;;;;;;20.13;59.35;100736.67;125358;1093;64288;-79
2021/08/03 08:24:02;;;;;;;3.17;2.03;;;;;;;20.09;58.86;100724.73;125053;1093;64307;-81
2021/08/03 08:26:30;;;;;;;6.40;2.50;;;;;;;20.03;57.56;100731.06;125391;1093;64300;-78
2021/08/03 08:28:57;;;;;;;3.30;2.33;;;;;;;19.96;59.20;100728.50;125081;1092;64307;-78
2021/08/03 08:31:25;;;;;;;4.07;1.70;;;;;;;20.02;58.44;100726.72;124952;1092;64392;-80
2021/08/03 08:33:52;;;;;;;2.70;1.50;;;;;;;20.13;58.37;100724.02;125091;1092;64156;-78
2021/08/03 08:36:19;;;;;;;5.00;1.10;;;;;;;20.30;58.77;100724.09;125112;1093;64263;-79
2021/08/03 08:38:46;;;;;;;4.03;2.20;;;;;;;20.45;58.43;100725.45;125018;1093;64285;-78
2021/08/03 08:41:13;;;;;;;2.13;0.90;;;;;;;20.60;57.90;100724.97;124784;1093;64380;-80
2021/08/03 08:43:42;;;;;;;3.80;1.60;;;;;;;20.75;57.88;100722.55;124871;1093;65515;-80
2021/08/03 08:46:14;;;;;;;3.55;1.40;;;;;;;20.90;57.08;100722.00;124967;1093;64272;-79
2021/08/03 08:48:43;;;;;;;2.37;0.90;;;;;;;20.88;55.23;100714.14;125134;1093;64278;-78
2021/08/03 08:51:10;;;;;;;1.90;1.10;;;;;;;20.90;57.25;100716.61;125011;1093;64268;-79
2021/08/03 08:53:38;;;;;;;2.80;0.97;;;;;;;20.96;56.89;100715.64;124902;1093;64291;-79
2021/08/03 08:56:05;;;;;;;2.47;1.30;;;;;;;21.16;56.35;100710.56;125225;1092;65468;-79
2021/08/03 08:58:34;;;;;;;2.13;0.83;;;;;;;21.28;54.16;100710.50;124989;1093;64268;-81
2021/08/03 09:01:03;;;;;;;3.57;1.60;;;;;;;21.47;56.08;100716.48;125222;1093;64390;-78
2021/08/03 09:03:31;;;;;;;2.53;1.30;;;;;;;21.76;56.22;100710.95;125093;1092;64268;-79
2021/08/03 09:06:01;;;;;;;4.23;1.60;;;;;;;21.88;53.44;100700.86;125054;1092;64352;-77
2021/08/03 09:08:40;;;;;;;3.20;1.40;;;;;;;21.92;54.57;100704.70;125198;1093;64261;-79
2021/08/03 09:11:16;;;;;;;3.20;1.80;;;;;;;21.96;54.47;100697.73;125055;1092;64394;-80
2021/08/03 09:14:00;;;;;;;2.23;1.07;;;;;;;21.83;52.13;100697.30;125111;1093;64269;-79
2021/08/03 09:16:43;;;;;;;3.67;1.73;;;;;;;21.62;53.11;100696.20;124826;1093;64282;-75
2021/08/03 09:19:35;;;;;;;2.27;1.60;;;;;;;21.57;54.27;100694.24;124735;1093;64368;-78
2021/08/03 09:22:23;;;;;;;1.60;1.20;;;;;;;21.60;52.71;100693.73;124864;1093;64442;-80
2021/08/03 09:24:52;;;;;;;1.90;1.30;;;;;;;21.67;53.12;100698.95;125008;1093;64408;-80
2021/08/03 09:27:45;;;;;;;4.77;1.47;;;;;;;21.74;53.31;100692.32;125052;1092;64285;-80
2021/08/03 09:30:18;;;;;;;2.70;1.40;;;;;;;21.85;52.84;100695.97;124994;1093;64288;-78
2021/08/03 09:32:48;;;;;;;2.93;1.40;;;;;;;21.97;52.21;100693.98;124983;1092;64975;-79
2021/08/03 09:35:18;;;;;;;2.63;1.23;;;;;;;22.04;52.16;100699.19;124894;1092;64246;-78
2021/08/03 09:37:45;;;;;;;3.10;1.30;;;;;;;22.08;51.55;100704.88;125075;1093;64879;-80
2021/08/03 09:40:27;;;;;;;3.27;1.60;;;;;;;22.12;51.46;100696.05;125172;1093;64249;-78
2021/08/03 09:43:09;;;;;;;2.60;1.50;;;;;;;22.36;52.63;100699.32;124899;1093;64249;-78
2021/08/03 09:45:56;;;;;;;3.43;1.37;;;;;;;22.69;51.10;100697.48;125036;1092;64281;-78
2021/08/03 09:48:26;;;;;;;1.93;1.23;;;;;;;23.03;49.24;100693.77;125166;1093;64387;-82
2021/08/03 09:51:00;;;;;;;2.47;1.30;;;;;;;23.30;49.88;100693.71;125339;1093;64374;-80
2021/08/03 09:53:46;;;;;;;3.10;1.47;;;;;;;23.42;47.42;100691.64;125150;1093;64198;-80
2021/08/03 09:56:27;;;;;;;2.87;1.40;;;;;;;23.43;48.22;100690.55;125155;1093;64345;-80
2021/08/03 09:58:59;;;;;;;2.43;0.83;;;;;;;23.39;46.49;100687.53;124978;1092;64360;-77
2021/08/03 10:01:33;;;;;;;2.23;0.80;;;;;;;23.24;44.45;100676.61;124865;1093;64355;-81
2021/08/03 10:04:12;;;;;;;2.03;0.70;;;;;;;23.01;44.82;100672.38;125373;1093;64201;-79
2021/08/03 10:06:41;;;;;;;2.15;0.90;;;;;;;22.88;46.99;100680.89;125280;1093;64284;-78
2021/08/03 10:09:12;;;;;;;2.50;1.23;;;;;;;22.87;48.85;100673.88;127781;1093;62987;-78
2021/08/03 10:11:40;;;;;;;1.80;0.73;;;;;;;22.91;47.08;100675.80;127218;1092;64407;-78
2021/08/03 10:14:25;;;;;;;4.77;1.40;;;;;;;22.95;47.96;100670.67;125532;1093;64275;-78
2021/08/03 10:16:53;;;;;;;2.30;1.20;;;;;;;22.96;47.93;100673.13;125261;1092;64280;-78
2021/08/03 10:19:24;;;;;;;4.10;1.30;;;;;;;22.93;47.97;100673.65;125048;1093;64278;-79
2021/08/03 10:22:14;;;;;;;2.40;1.57;;;;;;;22.94;47.97;100669.05;124960;1092;64244;-77
2021/08/03 10:25:00;;;;;;;2.73;1.27;;;;;;;22.92;47.50;100665.78;124978;1093;64327;-75
2021/08/03 10:27:46;;;;;;;4.10;1.30;;;;;;;;;;124948;1093;64371;-81
2021/08/03 10:30:28;;;;;;;2.80;1.00;;;;;;;22.90;47.64;100666.03;125157;1092;64227;-76
2021/08/03 10:33:00;;;;;;;1.80;1.00;;;;;;;22.86;47.93;100662.21;125132;1093;64303;-76
2021/08/03 10:35:53;;;;;;;1.70;0.80;;;;;;;22.95;47.56;100662.55;125030;1093;64281;-76
2021/08/03 10:38:28;;;;;;;2.97;0.50;;;;;;;23.05;46.44;100659.96;124985;1091;64198;-78
2021/08/03 10:40:56;;;;;;;2.20;0.90;;;;;;;23.40;46.85;100667.53;124990;1092;64269;-79
2021/08/03 10:43:34;;;;;;;2.60;0.80;;;;;;;23.74;45.62;100660.95;125128;1093;64361;-77
2021/08/03 10:46:08;;;;;;;2.03;0.80;;;;;;;24.03;44.62;100650.52;125011;1092;64287;-79
2021/08/03 10:48:38;;;;;;;2.80;0.80;;;;;;;24.07;43.60;100650.80;124974;1093;64243;-77
2021/08/03 10:51:14;;;;;;;2.27;0.90;;;;;;;24.17;43.76;100653.55;124980;1093;64220;-77
2021/08/03 10:54:04;;;;;;;1.53;0.83;;;;;;;24.15;43.13;100647.58;125023;1093;64166;-77
2021/08/03 10:57:14;;;;;;;1.93;0.80;;;;;;;24.24;43.04;100643.27;125491;1093;64275;-76
2021/08/03 10:59:42;;;;;;;1.50;0.43;;;;;;;24.49;42.25;100647.14;125089;1093;64851;-73
2021/08/03 11:02:35;;;;;;;1.40;0.60;;;;;;;24.73;42.31;100642.00;125051;1092;64294;-76
2021/08/03 11:05:02;;;;;;;2.87;0.90;;;;;;;24.98;40.40;100633.86;125140;1093;64371;-76
2021/08/03 11:07:31;;;;;;;2.67;0.80;;;;;;;25.23;41.56;100641.19;124953;1093;64477;-75
2021/08/03 11:10:01;;;;;;;1.65;0.60;;;;;;;25.49;39.65;100635.70;124785;1093;64374;-76
2021/08/03 11:12:47;;;;;;;1.70;0.60;;;;;;;25.71;40.24;100631.81;124966;1093;64269;-76
2021/08/03 11:15:21;;;;;;;3.70;2.00;;;;;;;25.81;37.75;100626.34;125124;1092;64996;-79
2021/08/03 11:17:52;;;;;;;2.08;0.70;;;;;;;25.82;38.12;100628.80;124868;1093;64230;-76
2021/08/03 11:20:34;;;;;;;1.93;0.80;;;;;;;25.89;37.69;100628.52;125095;1093;64394;-76
2021/08/03 11:23:13;;;;;;;2.50;1.10;;;;;;;25.73;38.54;100621.48;124904;1093;64282;-77
2021/08/03 11:25:43;;;;;;;1.85;0.70;;;;;;;25.56;37.14;100619.10;125057;1093;64316;-75
2021/08/03 11:28:22;;;;;;;2.37;0.80;;;;;;;25.31;36.54;100625.42;125045;1093;64280;-76
2021/08/03 11:30:51;;;;;;;4.55;1.00;;;;;;;24.95;37.61;100626.27;125025;1093;64189;-77
2021/08/03 11:33:20;;;;;;;2.00;0.63;;;;;;;24.89;38.30;100631.98;125088;1093;64294;-77
2021/08/03 11:35:48;;;;;;;2.20;0.80;;;;;;;24.76;38.46;100625.20;125022;1093;64288;-76